Time;durP1;ratioP1;P1;durP2;ratioP2;P2;SDS_P1;SDS_P2;PMS_P1;PMS_P2;Temp;Humidity;BMP_temperature;BMP_pressure;BME280_temperature;BME280_humidity;BME280_pressure;Samples;Min_cycle;Max_cycle;Signal;HPM_P1;HPM_P2
2023/01/23 00:01:06;;;;;;;15.52;14.15;;;;;;;2.93;69.84;103415.22;5074657;28;20388;-76
2023/01/23 00:03:33;;;;;;;14.65;13.30;;;;;;;2.93;69.88;103404.53;5074956;28;20089;-76
2023/01/23 00:06:12;;;;;;;18.13;16.40;;;;;;;2.94;69.95;103405.38;5057011;28;20032;-76
2023/01/23 00:08:39;;;;;;;14.30;13.20;;;;;;;2.94;69.84;103400.88;5074857;28;20024;-76
2023/01/23 00:11:10;;;;;;;17.20;14.98;;;;;;;2.94;69.85;103406.22;5074632;28;20493;-75
2023/01/23 00:13:36;;;;;;;18.98;16.58;;;;;;;2.95;70.07;103405.25;5073772;28;20078;-76
2023/01/23 00:16:11;;;;;;;18.50;14.70;;;;;;;2.95;69.70;103401.75;5075374;28;20426;-76
2023/01/23 00:18:38;;;;;;;22.23;17.17;;;;;;;2.94;69.77;103398.22;5074499;28;20042;-76
2023/01/23 00:21:05;;;;;;;14.90;13.77;;;;;;;2.94;69.75;103400.03;5072842;28;20082;-76
2023/01/23 00:23:31;;;;;;;22.40;16.73;;;;;;;2.94;69.76;103403.56;5074418;28;20029;-75
2023/01/23 00:26:05;;;;;;;15.85;14.57;;;;;;;2.94;69.83;103408.88;5074408;28;20379;-75
2023/01/23 00:28:30;;;;;;;23.98;15.07;;;;;;;2.95;69.71;103407.09;5074878;28;20061;-76
2023/01/23 00:31:10;;;;;;;16.67;15.10;;;;;;;2.96;69.76;103411.44;5073007;28;20413;-76
2023/01/23 00:33:36;;;;;;;11.80;11.00;;;;;;;2.97;70.09;103421.13;5073692;28;20037;-76
2023/01/23 00:36:01;;;;;;;17.02;15.30;;;;;;;2.96;69.87;103422.97;5073122;28;20435;-76
2023/01/23 00:38:27;;;;;;;24.70;19.85;;;;;;;2.97;69.60;103413.13;5074335;28;20055;-75
2023/01/23 00:40:54;;;;;;;19.50;16.77;;;;;;;2.97;69.84;103416.66;5073199;28;20425;-76
2023/01/23 00:43:20;;;;;;;20.10;17.58;;;;;;;2.97;70.10;103419.34;5072951;28;20036;-76
2023/01/23 00:45:46;;;;;;;11.95;11.25;;;;;;;2.98;69.68;103413.00;5074085;28;20029;-76
2023/01/23 00:48:11;;;;;;;19.42;16.23;;;;;;;2.97;70.02;103408.66;5073050;28;20028;-76
2023/01/23 00:50:36;;;;;;;15.45;14.02;;;;;;;2.98;69.85;103412.19;5072759;28;20032;-76
2023/01/23 00:53:02;;;;;;;15.50;14.13;;;;;;;2.99;69.71;103406.69;5074214;28;20057;-76
2023/01/23 00:55:27;;;;;;;23.20;19.13;;;;;;;2.99;69.94;103403.19;5072612;28;20028;-76
2023/01/23 00:57:52;;;;;;;15.55;14.32;;;;;;;2.99;70.12;103406.69;5073816;28;20055;-76
2023/01/23 01:00:18;;;;;;;23.40;16.88;;;;;;;2.99;69.83;103409.34;5074321;28;20051;-76
2023/01/23 01:02:43;;;;;;;15.07;13.65;;;;;;;3.00;69.81;103408.41;5073792;28;20031;-76
2023/01/23 01:05:09;;;;;;;14.10;12.73;;;;;;;3.01;70.07;103401.22;5072557;28;20464;-76
2023/01/23 01:07:34;;;;;;;17.00;15.38;;;;;;;3.01;70.12;103407.41;5073904;28;20067;-76
2023/01/23 01:09:59;;;;;;;14.15;13.15;;;;;;;3.00;69.71;103411.06;5072934;28;20363;-76
2023/01/23 01:12:25;;;;;;;16.45;14.98;;;;;;;3.03;69.80;103417.97;5072564;28;20436;-76
2023/01/23 01:14:50;;;;;;;17.05;15.43;;;;;;;3.02;69.85;103413.59;5072300;28;20036;-76
2023/01/23 01:17:16;;;;;;;16.33;14.18;;;;;;;3.02;69.74;103408.25;5073594;28;20111;-76
2023/01/23 01:19:41;;;;;;;17.45;15.75;;;;;;;3.01;70.06;103411.91;5072327;28;20032;-76
2023/01/23 01:22:07;;;;;;;12.38;11.57;;;;;;;3.03;70.04;103415.31;5073586;28;20036;-77
2023/01/23 01:24:32;;;;;;;18.05;15.63;;;;;;;3.02;70.11;103411.81;5073392;28;20036;-77
2023/01/23 01:26:58;;;;;;;14.40;13.20;;;;;;;3.04;70.04;103403.63;5072103;28;20040;-79
2023/01/23 01:29:23;;;;;;;20.50;18.38;;;;;;;3.03;69.81;103408.13;5073128;28;20054;-76
2023/01/23 01:31:48;;;;;;;19.20;16.00;;;;;;;3.03;69.58;103405.47;5072276;28;20108;-78
2023/01/23 01:34:14;;;;;;;14.23;13.05;;;;;;;3.04;70.04;103407.16;5072630;28;20434;-77
2023/01/23 01:36:39;;;;;;;14.50;13.07;;;;;;;3.05;70.08;103410.69;5073626;28;20024;-77
2023/01/23 01:39:05;;;;;;;13.27;12.07;;;;;;;3.06;69.84;103404.38;5073408;28;20082;-76
2023/01/23 01:41:30;;;;;;;19.65;16.77;;;;;;;3.06;70.08;103406.19;5072345;28;20033;-77
2023/01/23 01:43:56;;;;;;;14.70;13.35;;;;;;;3.05;69.93;103413.38;5073327;28;20449;-76
2023/01/23 01:46:26;;;;;;;16.80;15.25;;;;;;;3.05;69.81;103402.69;5055275;28;20127;-77
2023/01/23 01:49:05;;;;;;;17.35;15.40;;;;;;;3.07;69.99;103408.72;5073582;28;20024;-77
2023/01/23 01:51:35;;;;;;;18.27;16.50;;;;;;;3.07;70.02;103413.22;5072219;28;20448;-76
2023/01/23 01:54:27;;;;;;;16.63;14.93;;;;;;;3.07;69.79;103415.88;5071889;28;20032;-76
2023/01/23 01:57:07;;;;;;;14.95;13.75;;;;;;;3.06;70.19;103411.53;5073195;28;20021;-76
2023/01/23 01:59:44;;;;;;;19.90;15.55;;;;;;;3.06;69.90;103419.53;5073282;28;20136;-77
2023/01/23 02:02:16;;;;;;;15.50;14.02;;;;;;;3.06;69.87;103420.38;5073491;28;20033;-77
2023/01/23 02:04:47;;;;;;;14.27;12.82;;;;;;;3.06;70.05;103423.06;5073305;28;20032;-77
2023/01/23 02:07:21;;;;;;;14.23;13.02;;;;;;;3.06;70.13;103425.72;5073434;28;20441;-76
2023/01/23 02:09:47;;;;;;;13.52;12.50;;;;;;;3.08;69.91;103428.28;5073585;28;20052;-76
2023/01/23 02:12:12;;;;;;;16.15;14.77;;;;;;;3.07;70.17;103426.56;5071708;28;20047;-76
2023/01/23 02:14:38;;;;;;;24.90;16.63;;;;;;;3.09;70.22;103424.63;5071638;28;20090;-76
2023/01/23 02:17:03;;;;;;;14.93;13.45;;;;;;;3.09;69.80;103433.47;5071644;28;20107;-76
2023/01/23 02:19:53;;;;;;;17.25;15.27;;;;;;;3.09;70.05;103427.28;5055032;28;20028;-76
2023/01/23 02:22:48;;;;;;;14.32;13.07;;;;;;;3.09;69.72;103419.28;5071712;28;20032;-76
2023/01/23 02:25:30;;;;;;;11.30;10.60;;;;;;;3.08;69.81;103421.13;5071633;28;20032;-77
2023/01/23 02:27:56;;;;;;;16.23;14.55;;;;;;;3.09;70.07;103416.63;5072348;28;20031;-77
2023/01/23 02:30:22;;;;;;;13.45;12.30;;;;;;;3.08;70.06;103410.44;5071678;28;20107;-77
2023/01/23 02:32:48;;;;;;;13.32;12.43;;;;;;;3.10;69.92;103418.31;5072417;28;20451;-77
2023/01/23 02:35:26;;;;;;;15.40;14.02;;;;;;;3.11;69.81;103414.66;5071431;28;20444;-77
2023/01/23 02:37:54;;;;;;;17.13;15.27;;;;;;;3.10;69.81;103416.50;5076652;28;20027;-76
2023/01/23 02:40:35;;;;;;;18.92;15.98;;;;;;;3.09;69.90;103417.47;5076271;28;20036;-76
2023/01/23 02:43:03;;;;;;;16.88;15.20;;;;;;;3.10;69.86;103426.31;5075472;28;20379;-77
2023/01/23 02:45:30;;;;;;;18.92;16.90;;;;;;;3.10;70.14;103418.31;5076243;28;20033;-76
2023/01/23 02:47:55;;;;;;;16.67;14.77;;;;;;;3.10;70.03;103424.50;5076366;28;20036;-77
2023/01/23 02:50:21;;;;;;;19.88;15.38;;;;;;;3.10;70.05;103429.84;5075387;28;20036;-76
2023/01/23 02:52:48;;;;;;;15.95;14.55;;;;;;;3.10;70.15;103424.50;5076173;28;20496;-76
2023/01/23 02:55:14;;;;;;;17.65;15.40;;;;;;;3.11;70.30;103428.03;5074718;28;20472;-76
2023/01/23 02:57:39;;;;;;;16.58;15.20;;;;;;;3.12;69.84;103430.56;5076038;28;20037;-76
2023/01/23 03:00:19;;;;;;;17.25;15.55;;;;;;;3.12;70.17;103435.88;5057729;28;20079;-76
2023/01/23 03:02:49;;;;;;;20.42;14.55;;;;;;;3.12;70.10;103430.56;5076363;28;20123;-77
2023/01/23 03:05:16;;;;;;;14.02;12.77;;;;;;;3.13;69.80;103432.25;5074775;28;20037;-77
2023/01/23 03:07:42;;;;;;;15.63;14.15;;;;;;;3.12;69.85;103446.56;5076370;28;20021;-76
2023/01/23 03:10:09;;;;;;;14.90;13.60;;;;;;;3.12;69.91;103435.88;5076180;28;20115;-76
2023/01/23 03:12:34;;;;;;;16.80;15.32;;;;;;;3.13;69.88;103439.44;5075972;28;20035;-76
2023/01/23 03:15:00;;;;;;;14.60;13.32;;;;;;;3.14;69.81;103441.13;5074599;28;20037;-76
2023/01/23 03:17:27;;;;;;;18.75;15.90;;;;;;;3.14;70.24;103427.75;5075670;28;20028;-76
2023/01/23 03:19:54;;;;;;;19.98;13.98;;;;;;;3.15;69.70;103434.78;5075753;28;20033;-76
2023/01/23 03:22:19;;;;;;;12.02;11.00;;;;;;;3.14;70.08;103423.25;5075702;28;20028;-76
2023/01/23 03:24:45;;;;;;;18.77;16.88;;;;;;;3.14;70.08;103420.59;5074449;28;20040;-76
2023/01/23 03:27:11;;;;;;;14.82;13.57;;;;;;;3.14;70.05;103417.91;5074896;28;20028;-76
2023/01/23 03:32:21;;;;;;;16.25;14.85;;;;;;;3.15;69.79;103426.78;5075862;28;20094;-77
2023/01/23 03:34:46;;;;;;;14.27;12.90;;;;;;;3.14;69.91;103425.94;5075325;28;20035;-76
2023/01/23 03:37:13;;;;;;;16.55;14.93;;;;;;;3.15;69.99;103424.09;5075620;28;20028;-76
2023/01/23 03:42:23;;;;;;;16.40;14.93;;;;;;;3.15;70.13;103427.66;5075411;28;20039;-76
2023/01/23 03:44:50;;;;;;;16.98;14.90;;;;;;;3.15;69.85;103435.66;5074864;28;20041;-76
2023/01/23 03:47:15;;;;;;;25.15;16.10;;;;;;;3.15;70.17;103427.66;5073752;28;20396;-76
2023/01/23 03:49:41;;;;;;;28.85;21.30;;;;;;;3.15;69.86;103427.66;5073980;28;20035;-76
2023/01/23 03:52:06;;;;;;;14.35;13.18;;;;;;;3.16;70.08;103433.84;5075375;28;20097;-76
2023/01/23 03:54:32;;;;;;;15.35;14.02;;;;;;;3.16;69.85;103425.81;5073320;28;20078;-76
2023/01/23 03:56:57;;;;;;;23.67;15.98;;;;;;;3.15;69.70;103435.66;5073673;28;20036;-76
2023/01/23 03:59:23;;;;;;;11.90;11.00;;;;;;;3.17;70.02;103432.84;5073943;28;20064;-76
2023/01/23 04:01:48;;;;;;;22.15;19.80;;;;;;;3.16;69.77;103441.84;5074492;28;20039;-75
2023/01/23 04:04:14;;;;;;;16.33;14.57;;;;;;;3.15;70.08;103430.31;5073645;28;20037;-76
2023/01/23 04:06:39;;;;;;;21.23;16.33;;;;;;;3.16;70.17;103425.81;5074737;28;20039;-76
2023/01/23 04:09:05;;;;;;;13.02;11.90;;;;;;;3.17;70.07;103427.50;5073346;28;20041;-76
2023/01/23 04:11:30;;;;;;;14.52;13.20;;;;;;;3.16;69.86;103432.00;5073681;28;20021;-77
2023/01/23 04:13:55;;;;;;;16.65;15.10;;;;;;;3.17;70.13;103428.34;5073311;28;20032;-76
2023/01/23 04:16:22;;;;;;;26.27;17.65;;;;;;;3.16;70.03;103426.66;5073413;28;20040;-76
2023/01/23 04:18:48;;;;;;;21.38;13.98;;;;;;;3.18;70.03;103429.22;5074420;28;20024;-76
2023/01/23 04:21:13;;;;;;;20.08;12.52;;;;;;;3.18;69.88;103435.41;5074537;28;20028;-76
2023/01/23 04:23:39;;;;;;;16.05;14.38;;;;;;;3.18;69.92;103440.75;5074448;28;20027;-76
2023/01/23 04:26:04;;;;;;;13.00;11.80;;;;;;;3.18;70.12;103437.22;5073236;28;20472;-76
2023/01/23 04:28:30;;;;;;;18.92;14.27;;;;;;;3.18;69.76;103435.41;5073255;28;20361;-77
2023/01/23 04:30:55;;;;;;;18.98;16.80;;;;;;;3.19;70.23;103441.59;5074148;28;20040;-76
2023/01/23 04:33:21;;;;;;;17.63;15.27;;;;;;;3.19;69.98;103442.41;5074274;28;20055;-76
2023/01/23 04:35:52;;;;;;;18.73;15.45;;;;;;;3.20;69.88;103443.25;5073351;28;20514;-76
2023/01/23 04:38:18;;;;;;;24.38;19.20;;;;;;;3.20;69.96;103451.28;5074182;28;20039;-76
2023/01/23 04:40:45;;;;;;;16.33;14.75;;;;;;;3.19;69.96;103446.94;5073183;28;20024;-75
2023/01/23 04:43:11;;;;;;;21.65;17.85;;;;;;;3.19;70.29;103447.75;5074352;28;20036;-76
2023/01/23 04:45:36;;;;;;;14.52;12.68;;;;;;;3.19;70.10;103444.25;5073514;28;20070;-76
2023/01/23 04:48:02;;;;;;;19.50;14.35;;;;;;;3.20;69.90;103456.63;5074507;28;20032;-76
2023/01/23 04:50:27;;;;;;;29.58;17.95;;;;;;;3.20;69.89;103467.31;5072878;28;20051;-76
2023/01/23 04:52:52;;;;;;;30.05;19.00;;;;;;;3.20;69.94;103467.31;5072273;28;20369;-76
2023/01/23 04:55:18;;;;;;;22.33;16.60;;;;;;;3.20;69.82;103465.50;5072627;28;20113;-77
2023/01/23 04:57:43;;;;;;;31.17;18.98;;;;;;;3.20;70.45;103459.28;5073787;28;20032;-76
2023/01/23 05:00:09;;;;;;;29.17;17.65;;;;;;;3.20;69.79;103462.84;5074135;28;20452;-76
2023/01/23 05:02:35;;;;;;;16.95;14.27;;;;;;;3.20;70.22;103457.50;5074340;28;20029;-76
2023/01/23 05:05:00;;;;;;;16.83;15.23;;;;;;;3.21;69.87;103450.31;5073176;28;20510;-77
2023/01/23 05:07:26;;;;;;;18.05;15.63;;;;;;;3.20;70.13;103460.16;5072714;28;20365;-76
2023/01/23 05:09:51;;;;;;;22.48;17.13;;;;;;;3.20;70.02;103467.31;5073658;28;20029;-76
2023/01/23 05:12:16;;;;;;;25.98;17.40;;;;;;;3.21;70.33;103463.69;5055650;28;20117;-76
2023/01/23 05:14:42;;;;;;;21.20;16.17;;;;;;;3.21;70.18;103467.19;5072833;28;20086;-75
2023/01/23 05:17:07;;;;;;;21.80;18.25;;;;;;;3.22;70.15;103468.03;5074123;28;20381;-75
2023/01/23 05:19:33;;;;;;;18.67;13.73;;;;;;;3.21;70.00;103474.38;5073511;28;20040;-75
2023/01/23 05:21:58;;;;;;;22.13;19.35;;;;;;;3.21;69.88;103472.53;5056074;28;20052;-75
2023/01/23 05:24:23;;;;;;;21.35;17.40;;;;;;;3.21;69.99;103472.53;5072333;28;20029;-75
2023/01/23 05:26:49;;;;;;;18.38;16.40;;;;;;;3.22;70.11;103468.03;5073355;28;20425;-75
2023/01/23 05:29:14;;;;;;;14.77;13.60;;;;;;;3.22;70.20;103476.03;5072223;28;20033;-78
2023/01/23 05:31:40;;;;;;;22.35;16.08;;;;;;;3.22;70.34;103474.22;5073328;28;20108;-75
2023/01/23 05:34:05;;;;;;;16.75;15.25;;;;;;;3.24;70.23;103482.13;5073514;28;20040;-76
2023/01/23 05:36:30;;;;;;;20.98;17.00;;;;;;;3.23;70.36;103477.75;5072434;28;20036;-76
2023/01/23 05:38:56;;;;;;;19.25;17.27;;;;;;;3.23;70.33;103475.09;5072080;28;20032;-76
2023/01/23 05:41:21;;;;;;;14.63;13.18;;;;;;;3.22;70.35;103478.72;5071859;28;20032;-77
2023/01/23 05:43:48;;;;;;;19.40;16.60;;;;;;;3.23;70.38;103475.94;5072086;28;20040;-76
2023/01/23 05:46:14;;;;;;;22.98;18.65;;;;;;;3.23;70.25;103483.09;5073406;28;20476;-77
2023/01/23 05:48:40;;;;;;;18.10;14.85;;;;;;;3.24;70.21;103476.78;5073399;28;20060;-77
2023/01/23 05:51:06;;;;;;;17.60;16.02;;;;;;;3.25;70.20;103486.47;5071935;28;20044;-77
2023/01/23 05:53:31;;;;;;;19.13;16.13;;;;;;;3.24;70.01;103479.44;5072128;28;20040;-77
2023/01/23 05:55:56;;;;;;;16.05;14.38;;;;;;;3.24;70.19;103474.09;5055868;28;20142;-77
2023/01/23 05:58:21;;;;;;;19.25;15.18;;;;;;;3.25;69.99;103486.47;5055064;28;20052;-77
2023/01/23 06:00:47;;;;;;;19.45;15.98;;;;;;;3.24;70.07;103493.66;5073615;28;20029;-76
2023/01/23 06:03:12;;;;;;;17.40;14.90;;;;;;;3.25;70.41;103483.78;5073580;28;20043;-77
2023/01/23 06:05:39;;;;;;;17.13;15.43;;;;;;;3.24;70.44;103488.31;5072368;28;20037;-77
2023/01/23 06:08:04;;;;;;;15.20;13.88;;;;;;;3.24;70.20;103495.47;5073489;28;20033;-77
2023/01/23 06:10:30;;;;;;;19.38;17.42;;;;;;;3.25;70.16;103483.78;5072753;28;20086;-77
2023/01/23 06:12:55;;;;;;;20.10;17.15;;;;;;;3.25;70.40;103489.13;5075679;28;20452;-77
2023/01/23 06:15:21;;;;;;;16.20;14.65;;;;;;;3.24;70.48;103487.47;5077135;28;20433;-77
2023/01/23 06:17:46;;;;;;;19.23;15.55;;;;;;;3.25;70.38;103482.00;5059487;28;20039;-76
2023/01/23 06:20:12;;;;;;;27.15;18.33;;;;;;;3.25;70.36;103483.78;5076175;28;20109;-76
2023/01/23 06:22:38;;;;;;;16.70;14.55;;;;;;;3.25;70.33;103484.66;5075545;28;20072;-76
2023/01/23 06:25:03;;;;;;;28.45;19.67;;;;;;;3.26;70.26;103485.50;5076667;28;20064;-76
2023/01/23 06:27:29;;;;;;;21.58;16.55;;;;;;;3.27;70.01;103483.69;5076747;28;20036;-76
2023/01/23 06:29:54;;;;;;;22.33;17.20;;;;;;;3.27;70.15;103484.53;5075695;28;20025;-76
2023/01/23 06:32:22;;;;;;;13.07;11.93;;;;;;;3.26;70.09;103488.19;5076700;28;20051;-76
2023/01/23 06:34:47;;;;;;;15.48;14.00;;;;;;;3.27;70.10;103494.38;5076438;28;20051;-75
2023/01/23 06:37:13;;;;;;;16.63;15.10;;;;;;;3.27;70.15;103495.22;5076730;28;20384;-75
2023/01/23 06:39:39;;;;;;;28.10;20.50;;;;;;;3.27;70.04;103503.22;5076196;28;20029;-76
2023/01/23 06:42:08;;;;;;;20.08;16.38;;;;;;;3.28;70.25;103504.09;5075312;28;20038;-76
2023/01/23 06:44:34;;;;;;;27.90;15.85;;;;;;;3.28;70.36;103501.44;5076317;28;20033;-75
2023/01/23 06:46:59;;;;;;;19.45;16.40;;;;;;;3.28;70.54;103499.59;5076510;28;20032;-76
2023/01/23 06:49:24;;;;;;;23.88;17.95;;;;;;;3.29;70.46;103505.78;5076341;28;20111;-76
2023/01/23 06:51:50;;;;;;;16.95;13.38;;;;;;;3.28;70.50;103498.75;5076393;28;20029;-75
2023/01/23 06:54:15;;;;;;;13.52;11.73;;;;;;;3.28;70.45;103499.59;5076408;28;20032;-77
2023/01/23 06:56:41;;;;;;;17.45;15.70;;;;;;;3.29;70.50;103509.28;5058255;28;20028;-77
2023/01/23 06:59:06;;;;;;;24.42;17.98;;;;;;;3.28;70.33;103499.59;5074707;28;20447;-77
2023/01/23 07:01:31;;;;;;;18.05;16.15;;;;;;;3.29;70.40;103508.44;5074906;28;20085;-76
2023/01/23 07:03:57;;;;;;;20.90;18.45;;;;;;;3.30;70.56;103518.16;5057865;28;20033;-77
2023/01/23 07:06:22;;;;;;;20.15;15.20;;;;;;;3.29;70.26;103517.31;5076086;28;20368;-76
2023/01/23 07:08:48;;;;;;;20.83;16.48;;;;;;;3.29;70.33;103517.31;5076165;28;20029;-78
2023/01/23 07:11:14;;;;;;;18.83;16.65;;;;;;;3.29;70.37;103514.63;5075882;28;20029;-76
2023/01/23 07:13:40;;;;;;;16.63;15.02;;;;;;;3.30;70.48;103526.16;5074590;28;20039;-76
2023/01/23 07:16:05;;;;;;;18.98;15.80;;;;;;;3.30;70.06;103527.03;5074510;28;20032;-78
2023/01/23 07:18:32;;;;;;;15.30;13.68;;;;;;;3.31;69.97;103531.41;5075806;28;20035;-77
2023/01/23 07:20:57;;;;;;;16.05;14.52;;;;;;;3.29;70.15;103533.34;5075572;28;20028;-76
2023/01/23 07:23:23;;;;;;;20.20;18.38;;;;;;;3.30;70.07;103545.75;5075640;28;20029;-78
2023/01/23 07:25:48;;;;;;;13.35;12.20;;;;;;;3.31;70.48;103544.75;5074255;28;20074;-78
2023/01/23 07:28:14;;;;;;;31.98;17.13;;;;;;;3.31;70.41;103544.75;5073660;28;20496;-76
2023/01/23 07:30:40;;;;;;;20.30;17.83;;;;;;;3.31;70.66;103554.59;5074129;28;20064;-78
2023/01/23 07:33:05;;;;;;;21.20;16.75;;;;;;;3.31;70.14;103543.91;5073652;28;20043;-76
2023/01/23 07:35:31;;;;;;;16.77;15.32;;;;;;;3.31;70.00;103552.78;5075173;28;20024;-76
2023/01/23 07:37:57;;;;;;;22.30;17.75;;;;;;;3.32;70.43;103556.28;5073236;28;20112;-77
2023/01/23 07:40:23;;;;;;;22.08;18.50;;;;;;;3.32;70.38;103562.47;5075319;28;20036;-77
2023/01/23 07:42:48;;;;;;;22.80;19.30;;;;;;;3.32;70.25;103558.97;5074825;28;20125;-76
2023/01/23 07:45:13;;;;;;;17.85;15.48;;;;;;;3.32;70.36;103554.44;5073495;28;20036;-75
2023/01/23 07:47:39;;;;;;;21.73;18.63;;;;;;;3.33;70.34;103558.00;5056966;28;20032;-76
2023/01/23 07:50:07;;;;;;;28.35;20.95;;;;;;;3.33;70.10;103564.19;5073667;28;20051;-77
2023/01/23 07:52:32;;;;;;;16.48;14.98;;;;;;;3.33;70.39;103564.19;5074802;28;20097;-76
2023/01/23 07:54:58;;;;;;;25.40;20.42;;;;;;;3.33;70.28;103555.31;5074679;28;20029;-77
2023/01/23 07:57:23;;;;;;;19.33;15.07;;;;;;;3.32;70.52;103570.47;5074888;28;20119;-78
2023/01/23 07:59:49;;;;;;;22.48;18.05;;;;;;;3.33;70.18;103563.34;5075043;28;20131;-76
2023/01/23 08:02:14;;;;;;;18.45;16.55;;;;;;;3.33;70.20;103566.84;5074801;28;20484;-77
2023/01/23 08:04:39;;;;;;;24.75;18.77;;;;;;;3.34;70.59;103563.19;5074659;28;20037;-78
2023/01/23 08:07:05;;;;;;;20.90;18.70;;;;;;;3.34;70.37;103565.88;5073296;28;20036;-78
2023/01/23 08:09:31;;;;;;;17.95;14.88;;;;;;;3.34;70.11;103557.00;5073645;28;20035;-78
2023/01/23 08:11:56;;;;;;;24.33;17.85;;;;;;;3.34;70.27;103560.53;5073372;28;20425;-76
2023/01/23 08:14:21;;;;;;;17.13;15.40;;;;;;;3.34;70.18;103563.19;5073107;28;20549;-75
2023/01/23 08:16:51;;;;;;;26.30;17.48;;;;;;;3.35;70.29;103564.03;5056254;28;20036;-76
2023/01/23 08:19:17;;;;;;;19.27;16.73;;;;;;;3.35;70.23;103564.91;5072843;28;20093;-76
2023/01/23 08:21:43;;;;;;;24.55;18.25;;;;;;;3.36;70.08;103560.41;5072766;28;20078;-77
2023/01/23 08:24:11;;;;;;;21.05;17.85;;;;;;;3.36;70.40;103565.75;5074156;28;20025;-76
2023/01/23 08:26:36;;;;;;;24.38;19.95;;;;;;;3.36;70.13;103573.78;5074282;28;20040;-76
2023/01/23 08:29:02;;;;;;;21.98;18.42;;;;;;;3.37;70.50;103572.78;5074153;28;20033;-77
2023/01/23 08:31:28;;;;;;;31.00;18.00;;;;;;;3.37;70.24;103580.81;5073846;28;20063;-76
2023/01/23 08:33:54;;;;;;;22.17;15.73;;;;;;;3.38;70.24;103582.53;5055299;28;20041;-79
2023/01/23 08:36:19;;;;;;;26.90;18.48;;;;;;;3.37;70.33;103587.00;5072046;28;20071;-75
2023/01/23 08:38:45;;;;;;;13.55;12.50;;;;;;;3.37;70.49;103587.00;5073782;28;20032;-76
2023/01/23 08:41:10;;;;;;;38.35;26.23;;;;;;;3.37;70.49;103594.16;5072059;28;20036;-75
2023/01/23 08:43:36;;;;;;;23.60;20.30;;;;;;;3.36;70.59;103596.00;5073108;28;20035;-76
2023/01/23 08:46:02;;;;;;;33.25;18.27;;;;;;;3.37;70.34;103591.50;5072306;28;20032;-78
2023/01/23 08:48:28;;;;;;;20.55;18.48;;;;;;;3.37;70.72;103589.66;5071835;28;20043;-76
2023/01/23 08:51:08;;;;;;;20.63;15.90;;;;;;;3.37;70.67;103595.00;5072287;28;20035;-77
2023/01/23 08:53:35;;;;;;;16.35;14.68;;;;;;;3.36;70.40;103601.34;5072032;28;20038;-78
2023/01/23 08:56:14;;;;;;;20.65;18.58;;;;;;;3.37;70.41;103613.72;5073115;28;20032;-78
2023/01/23 08:58:40;;;;;;;25.48;15.75;;;;;;;3.37;70.31;103611.03;5071510;28;20040;-78
2023/01/23 09:01:12;;;;;;;27.27;18.23;;;;;;;3.38;70.40;103609.22;5073320;28;20127;-78
2023/01/23 09:03:38;;;;;;;19.15;13.85;;;;;;;3.37;70.30;103599.50;5074169;28;20074;-76
2023/01/23 09:06:03;;;;;;;20.17;16.08;;;;;;;3.37;70.36;103607.53;5072097;28;20036;-77
2023/01/23 09:08:29;;;;;;;19.95;17.98;;;;;;;3.39;70.67;103608.25;5073086;28;20095;-76
2023/01/23 09:11:05;;;;;;;21.02;17.77;;;;;;;3.38;70.58;103610.06;5071960;28;20032;-77
2023/01/23 09:13:32;;;;;;;28.00;19.08;;;;;;;3.38;70.59;103596.72;5072097;28;20463;-77
2023/01/23 09:15:57;;;;;;;22.35;19.42;;;;;;;3.39;70.35;103601.06;5073032;28;20056;-77
2023/01/23 09:18:24;;;;;;;18.35;16.00;;;;;;;3.39;70.42;103593.06;5071965;28;20461;-76
2023/01/23 09:20:52;;;;;;;23.17;16.75;;;;;;;3.40;70.39;103599.25;5071826;28;20435;-76
2023/01/23 09:23:17;;;;;;;28.42;22.45;;;;;;;3.40;70.28;103601.91;5071911;28;20036;-77
2023/01/23 09:25:43;;;;;;;20.08;16.33;;;;;;;3.41;70.86;103598.28;5055638;28;20409;-79
2023/01/23 09:28:08;;;;;;;21.67;19.40;;;;;;;3.40;70.78;103600.13;5071714;28;20032;-77
2023/01/23 09:30:34;;;;;;;17.65;15.80;;;;;;;3.40;70.42;103600.13;5072474;28;20071;-76
2023/01/23 09:32:59;;;;;;;17.20;14.93;;;;;;;3.41;70.77;103601.81;5072998;28;20423;-77
2023/01/23 09:35:25;;;;;;;20.67;15.52;;;;;;;3.42;70.81;103608.00;5072057;28;20523;-76
2023/01/23 09:37:59;;;;;;;18.60;16.50;;;;;;;3.41;70.42;103609.81;5071748;28;20075;-77
2023/01/23 09:40:44;;;;;;;18.67;16.65;;;;;;;3.42;70.69;103616.00;5071861;28;20035;-76
2023/01/23 09:43:24;;;;;;;19.85;17.17;;;;;;;3.41;70.53;103617.84;5071435;28;20017;-76
2023/01/23 09:46:00;;;;;;;23.88;19.90;;;;;;;3.43;70.70;103628.41;5073412;28;20024;-81
2023/01/23 09:48:48;;;;;;;23.38;17.25;;;;;;;3.43;70.97;103628.41;5077037;28;20080;-77
2023/01/23 09:51:36;;;;;;;18.65;16.85;;;;;;;3.43;70.73;103631.94;5075959;28;20112;-78
2023/01/23 09:54:33;;;;;;;20.95;18.67;;;;;;;3.44;70.57;103630.09;5057426;28;20040;-77
2023/01/23 09:57:02;;;;;;;18.05;15.93;;;;;;;3.44;70.67;103619.41;5076353;28;20040;-76
2023/01/23 09:59:36;;;;;;;22.85;19.23;;;;;;;3.45;70.75;103619.31;5075336;28;20040;-78
2023/01/23 10:02:01;;;;;;;20.27;17.80;;;;;;;3.46;70.56;103621.00;5076943;28;20089;-77
2023/01/23 10:04:28;;;;;;;20.02;18.05;;;;;;;3.49;70.64;103619.03;5076814;28;20463;-78
2023/01/23 10:07:15;;;;;;;26.83;20.02;;;;;;;3.50;70.70;103623.41;5075580;28;20111;-79
2023/01/23 10:09:57;;;;;;;24.88;19.60;;;;;;;3.50;70.84;103621.56;5076968;28;20036;-76
2023/01/23 10:12:46;;;;;;;26.08;18.92;;;;;;;3.51;70.67;103612.59;5075330;28;20028;-78
2023/01/23 10:15:50;;;;;;;18.98;16.80;;;;;;;3.51;70.84;103609.09;5075436;28;20025;-78
2023/01/23 10:18:27;;;;;;;22.42;20.10;;;;;;;3.50;70.71;103607.38;5075057;28;20028;-76
2023/01/23 10:21:14;;;;;;;25.52;18.48;;;;;;;3.51;71.10;103625.97;5075348;28;20120;-76
2023/01/23 10:23:50;;;;;;;25.75;20.50;;;;;;;3.52;70.67;103618.78;5075143;28;20040;-77
2023/01/23 10:26:22;;;;;;;25.02;20.02;;;;;;;3.53;70.75;103623.16;5076711;28;20055;-77
2023/01/23 10:28:52;;;;;;;24.70;20.30;;;;;;;3.54;71.07;103623.03;5076300;28;20063;-77
2023/01/23 10:32:00;;;;;;;20.88;18.30;;;;;;;3.55;70.66;103607.84;5076419;28;20025;-78
2023/01/23 10:34:47;;;;;;;30.05;23.20;;;;;;;3.56;70.72;103614.91;5033909;28;20036;-77
2023/01/23 10:37:23;;;;;;;27.02;20.58;;;;;;;3.55;70.88;103611.34;5034121;28;20034;-76
2023/01/23 10:39:59;;;;;;;22.02;19.73;;;;;;;3.56;70.87;103609.56;5063766;28;20044;-76
2023/01/23 10:42:26;;;;;;;20.23;17.50;;;;;;;3.57;70.75;103614.75;5076007;28;20124;-76
2023/01/23 10:44:51;;;;;;;20.00;17.85;;;;;;;3.59;71.12;103611.97;5076188;28;20449;-78
2023/01/23 10:47:25;;;;;;;29.35;24.35;;;;;;;3.61;71.15;103610.03;5076235;28;20040;-78
2023/01/23 10:49:51;;;;;;;28.13;19.85;;;;;;;3.61;71.06;103610.03;5076273;28;20024;-77
2023/01/23 10:52:38;;;;;;;27.17;21.30;;;;;;;3.61;71.25;103605.53;5075949;28;20365;-78
2023/01/23 10:55:25;;;;;;;23.27;19.27;;;;;;;3.64;71.40;103607.09;5074601;28;20107;-76
2023/01/23 10:58:01;;;;;;;22.58;18.02;;;;;;;3.63;71.63;103608.94;5074835;28;20054;-77
2023/01/23 11:00:35;;;;;;;26.05;20.20;;;;;;;3.65;70.93;103614.13;5075328;28;20048;-78
2023/01/23 11:03:20;;;;;;;25.02;20.27;;;;;;;3.65;71.62;103598.97;5075817;28;20029;-75
2023/01/23 11:06:02;;;;;;;14.85;13.70;;;;;;;3.65;71.02;103598.09;5075746;28;20033;-74
2023/01/23 11:08:41;;;;;;;26.58;20.35;;;;;;;3.65;70.99;103593.63;5075685;28;20023;-74
2023/01/23 11:11:13;;;;;;;19.83;16.58;;;;;;;3.67;71.46;103602.34;5074956;28;20064;-74
2023/01/23 11:13:38;;;;;;;18.85;17.05;;;;;;;3.68;71.17;103608.56;5074141;28;20036;-74
2023/01/23 11:16:04;;;;;;;26.55;18.80;;;;;;;3.68;71.15;103606.72;5075613;28;20093;-75
2023/01/23 11:18:33;;;;;;;27.40;20.42;;;;;;;3.71;71.28;103600.28;5057921;28;20081;-74
2023/01/23 11:20:59;;;;;;;;;;;;;;;3.73;71.25;103606.34;5075824;28;20460;-74
2023/01/23 11:23:25;;;;;;;20.70;16.85;;;;;;;3.74;71.12;103613.38;5075685;28;20025;-74
2023/01/23 11:25:52;;;;;;;18.95;16.90;;;;;;;3.75;71.34;103617.72;5075207;28;20427;-74
2023/01/23 11:28:22;;;;;;;30.27;22.60;;;;;;;3.75;71.24;103620.41;5075246;28;20060;-74